sensor_id;sensor_type;location;lat;lon;timestamp;temperature;humidity
76956;DHT22;65894;53.206;-6.108;2022-12-29T00:01:31;20.02;56.20
76956;DHT22;65894;53.206;-6.108;2022-12-29T00:03:57;20.02;56.13
76956;DHT22;65894;53.206;-6.108;2022-12-29T00:06:23;20.02;56.09
76956;DHT22;65894;53.206;-6.108;2022-12-29T00:08:48;20.02;56.07
76956;DHT22;65894;53.206;-6.108;2022-12-29T00:11:19;20.01;56.16
76956;DHT22;65894;53.206;-6.108;2022-12-29T00:13:45;20.04;55.94
76956;DHT22;65894;53.206;-6.108;2022-12-29T00:16:30;20.04;55.95
76956;DHT22;65894;53.206;-6.108;2022-12-29T00:18:56;20.02;56.14
76956;DHT22;65894;53.206;-6.108;2022-12-29T00:21:22;20.02;56.38
76956;DHT22;65894;53.206;-6.108;2022-12-29T00:24:16;20.04;56.44
76956;DHT22;65894;53.206;-6.108;2022-12-29T00:29:48;20.05;56.52
76956;DHT22;65894;53.206;-6.108;2022-12-29T00:32:32;20.04;56.91
76956;DHT22;65894;53.206;-6.108;2022-12-29T00:35:25;20.02;56.84
76956;DHT22;65894;53.206;-6.108;2022-12-29T00:37:52;20.01;56.32
76956;DHT22;65894;53.206;-6.108;2022-12-29T00:40:37;20.02;56.22
76956;DHT22;65894;53.206;-6.108;2022-12-29T00:43:21;20.02;56.89
76956;DHT22;65894;53.206;-6.108;2022-12-29T00:46:05;20.01;56.77
76956;DHT22;65894;53.206;-6.108;2022-12-29T00:48:30;20.02;56.76
76956;DHT22;65894;53.206;-6.108;2022-12-29T00:51:14;20.01;56.50
76956;DHT22;65894;53.206;-6.108;2022-12-29T00:53:39;19.99;56.66
76956;DHT22;65894;53.206;-6.108;2022-12-29T00:56:05;19.98;56.71
76956;DHT22;65894;53.206;-6.108;2022-12-29T00:58:31;19.98;56.57
76956;DHT22;65894;53.206;-6.108;2022-12-29T01:01:03;19.98;56.45
76956;DHT22;65894;53.206;-6.108;2022-12-29T01:03:29;19.99;56.45
76956;DHT22;65894;53.206;-6.108;2022-12-29T01:05:55;19.99;56.28
76956;DHT22;65894;53.206;-6.108;2022-12-29T01:08:20;19.98;56.37
76956;DHT22;65894;53.206;-6.108;2022-12-29T01:10:46;19.98;56.41
76956;DHT22;65894;53.206;-6.108;2022-12-29T01:13:11;19.98;56.24
76956;DHT22;65894;53.206;-6.108;2022-12-29T01:15:37;20.01;56.33
76956;DHT22;65894;53.206;-6.108;2022-12-29T01:18:02;19.96;56.24
76956;DHT22;65894;53.206;-6.108;2022-12-29T01:20:29;19.99;56.36
76956;DHT22;65894;53.206;-6.108;2022-12-29T01:22:55;19.95;56.30
76956;DHT22;65894;53.206;-6.108;2022-12-29T01:25:21;19.93;56.30
76956;DHT22;65894;53.206;-6.108;2022-12-29T01:27:46;19.96;56.27
76956;DHT22;65894;53.206;-6.108;2022-12-29T01:30:12;19.96;56.21
76956;DHT22;65894;53.206;-6.108;2022-12-29T01:32:37;19.96;56.28
76956;DHT22;65894;53.206;-6.108;2022-12-29T01:35:03;20.01;56.07
76956;DHT22;65894;53.206;-6.108;2022-12-29T01:37:29;19.96;56.30
76956;DHT22;65894;53.206;-6.108;2022-12-29T01:39:54;19.98;56.33
76956;DHT22;65894;53.206;-6.108;2022-12-29T01:42:23;19.93;56.16
76956;DHT22;65894;53.206;-6.108;2022-12-29T01:45:02;19.93;56.24
76956;DHT22;65894;53.206;-6.108;2022-12-29T01:52:52;19.91;56.44
76956;DHT22;65894;53.206;-6.108;2022-12-29T01:55:19;19.93;56.27
76956;DHT22;65894;53.206;-6.108;2022-12-29T01:57:48;19.93;56.36
76956;DHT22;65894;53.206;-6.108;2022-12-29T02:00:15;19.93;56.29
76956;DHT22;65894;53.206;-6.108;2022-12-29T02:02:59;19.91;56.38
76956;DHT22;65894;53.206;-6.108;2022-12-29T02:06:02;19.91;56.42
76956;DHT22;65894;53.206;-6.108;2022-12-29T02:08:22;19.95;56.50
76956;DHT22;65894;53.206;-6.108;2022-12-29T02:10:48;19.92;56.48
76956;DHT22;65894;53.206;-6.108;2022-12-29T02:13:16;19.93;56.54
76956;DHT22;65894;53.206;-6.108;2022-12-29T02:24:16;19.91;56.39
76956;DHT22;65894;53.206;-6.108;2022-12-29T02:27:17;19.92;56.11
76956;DHT22;65894;53.206;-6.108;2022-12-29T02:35:36;19.89;56.45
76956;DHT22;65894;53.206;-6.108;2022-12-29T02:38:20;19.93;56.41
76956;DHT22;65894;53.206;-6.108;2022-12-29T02:41:00;19.91;56.37
76956;DHT22;65894;53.206;-6.108;2022-12-29T02:43:50;19.93;56.24
76956;DHT22;65894;53.206;-6.108;2022-12-29T02:49:10;19.91;56.38
76956;DHT22;65894;53.206;-6.108;2022-12-29T02:51:53;19.92;56.32
76956;DHT22;65894;53.206;-6.108;2022-12-29T02:54:23;19.92;56.21
76956;DHT22;65894;53.206;-6.108;2022-12-29T02:59:50;19.93;56.26
76956;DHT22;65894;53.206;-6.108;2022-12-29T03:02:33;19.93;56.29
76956;DHT22;65894;53.206;-6.108;2022-12-29T03:07:43;19.92;56.24
76956;DHT22;65894;53.206;-6.108;2022-12-29T03:16:30;19.95;56.21
76956;DHT22;65894;53.206;-6.108;2022-12-29T03:24:21;19.99;56.23
76956;DHT22;65894;53.206;-6.108;2022-12-29T03:26:49;19.98;56.17
76956;DHT22;65894;53.206;-6.108;2022-12-29T03:29:18;19.96;56.18
76956;DHT22;65894;53.206;-6.108;2022-12-29T03:31:48;19.96;56.25
76956;DHT22;65894;53.206;-6.108;2022-12-29T03:34:15;19.99;56.16
76956;DHT22;65894;53.206;-6.108;2022-12-29T03:36:48;19.99;56.04
76956;DHT22;65894;53.206;-6.108;2022-12-29T03:39:17;19.98;56.13
76956;DHT22;65894;53.206;-6.108;2022-12-29T03:41:49;19.96;56.06
76956;DHT22;65894;53.206;-6.108;2022-12-29T03:44:16;19.96;56.27
76956;DHT22;65894;53.206;-6.108;2022-12-29T03:46:41;19.96;56.11
76956;DHT22;65894;53.206;-6.108;2022-12-29T03:49:07;19.96;56.20
76956;DHT22;65894;53.206;-6.108;2022-12-29T03:51:32;19.99;56.11
76956;DHT22;65894;53.206;-6.108;2022-12-29T03:53:58;20.02;56.10
76956;DHT22;65894;53.206;-6.108;2022-12-29T03:56:23;19.98;56.10
76956;DHT22;65894;53.206;-6.108;2022-12-29T03:58:50;19.99;56.13
76956;DHT22;65894;53.206;-6.108;2022-12-29T04:01:24;20.01;56.16
76956;DHT22;65894;53.206;-6.108;2022-12-29T04:03:49;20.04;55.96
76956;DHT22;65894;53.206;-6.108;2022-12-29T04:06:15;20.02;56.03
76956;DHT22;65894;53.206;-6.108;2022-12-29T04:08:52;20.02;56.03
76956;DHT22;65894;53.206;-6.108;2022-12-29T04:11:17;20.02;56.08
76956;DHT22;65894;53.206;-6.108;2022-12-29T04:13:43;20.05;55.96
76956;DHT22;65894;53.206;-6.108;2022-12-29T04:16:12;20.04;55.81
76956;DHT22;65894;53.206;-6.108;2022-12-29T04:18:38;20.06;55.92
76956;DHT22;65894;53.206;-6.108;2022-12-29T04:21:04;20.05;55.98
76956;DHT22;65894;53.206;-6.108;2022-12-29T04:23:35;20.05;55.94
76956;DHT22;65894;53.206;-6.108;2022-12-29T04:26:02;20.06;55.95
76956;DHT22;65894;53.206;-6.108;2022-12-29T04:28:29;20.04;55.89
76956;DHT22;65894;53.206;-6.108;2022-12-29T04:31:09;20.05;55.95
76956;DHT22;65894;53.206;-6.108;2022-12-29T04:33:38;20.05;55.93
76956;DHT22;65894;53.206;-6.108;2022-12-29T04:36:04;20.05;55.85
76956;DHT22;65894;53.206;-6.108;2022-12-29T04:38:29;20.08;55.92
76956;DHT22;65894;53.206;-6.108;2022-12-29T04:40:55;20.08;55.84
76956;DHT22;65894;53.206;-6.108;2022-12-29T04:43:23;20.09;55.82
76956;DHT22;65894;53.206;-6.108;2022-12-29T04:46:17;20.12;55.79
76956;DHT22;65894;53.206;-6.108;2022-12-29T04:48:51;20.10;55.78
76956;DHT22;65894;53.206;-6.108;2022-12-29T04:51:35;20.06;55.65
76956;DHT22;65894;53.206;-6.108;2022-12-29T04:54:01;20.08;55.83
76956;DHT22;65894;53.206;-6.108;2022-12-29T04:56:27;20.12;55.71
76956;DHT22;65894;53.206;-6.108;2022-12-29T04:58:53;20.13;55.71
76956;DHT22;65894;53.206;-6.108;2022-12-29T05:01:19;20.13;55.73
76956;DHT22;65894;53.206;-6.108;2022-12-29T05:03:45;20.13;55.63
76956;DHT22;65894;53.206;-6.108;2022-12-29T05:06:10;20.15;55.69
76956;DHT22;65894;53.206;-6.108;2022-12-29T05:08:36;20.12;55.66
76956;DHT22;65894;53.206;-6.108;2022-12-29T05:11:02;20.15;55.69
76956;DHT22;65894;53.206;-6.108;2022-12-29T05:13:27;20.15;55.62
76956;DHT22;65894;53.206;-6.108;2022-12-29T05:15:53;20.12;55.41
76956;DHT22;65894;53.206;-6.108;2022-12-29T05:18:20;20.15;55.47
76956;DHT22;65894;53.206;-6.108;2022-12-29T05:20:47;20.18;55.62
76956;DHT22;65894;53.206;-6.108;2022-12-29T05:23:14;20.18;55.62
76956;DHT22;65894;53.206;-6.108;2022-12-29T05:25:40;20.15;55.62
76956;DHT22;65894;53.206;-6.108;2022-12-29T05:28:18;20.16;55.56
76956;DHT22;65894;53.206;-6.108;2022-12-29T05:30:50;20.16;55.56
76956;DHT22;65894;53.206;-6.108;2022-12-29T05:33:18;20.16;55.42
76956;DHT22;65894;53.206;-6.108;2022-12-29T05:35:44;20.18;55.50
76956;DHT22;65894;53.206;-6.108;2022-12-29T05:38:10;20.19;55.40
76956;DHT22;65894;53.206;-6.108;2022-12-29T05:40:37;20.18;55.53
76956;DHT22;65894;53.206;-6.108;2022-12-29T05:43:07;20.19;55.56
76956;DHT22;65894;53.206;-6.108;2022-12-29T05:45:53;20.18;55.54
76956;DHT22;65894;53.206;-6.108;2022-12-29T05:48:42;20.19;55.47
76956;DHT22;65894;53.206;-6.108;2022-12-29T05:51:30;20.19;55.41
76956;DHT22;65894;53.206;-6.108;2022-12-29T05:53:56;20.18;55.47
76956;DHT22;65894;53.206;-6.108;2022-12-29T05:56:23;20.20;55.45
76956;DHT22;65894;53.206;-6.108;2022-12-29T05:58:54;20.19;55.42
76956;DHT22;65894;53.206;-6.108;2022-12-29T06:01:21;20.18;55.41
76956;DHT22;65894;53.206;-6.108;2022-12-29T06:03:53;20.19;55.36
76956;DHT22;65894;53.206;-6.108;2022-12-29T06:06:19;20.18;55.45
76956;DHT22;65894;53.206;-6.108;2022-12-29T06:08:45;20.20;55.39
76956;DHT22;65894;53.206;-6.108;2022-12-29T06:11:12;20.20;55.40
76956;DHT22;65894;53.206;-6.108;2022-12-29T06:13:40;20.25;55.31
76956;DHT22;65894;53.206;-6.108;2022-12-29T06:16:06;20.25;55.30
76956;DHT22;65894;53.206;-6.108;2022-12-29T06:18:32;20.22;55.25
76956;DHT22;65894;53.206;-6.108;2022-12-29T06:21:01;20.23;55.24
76956;DHT22;65894;53.206;-6.108;2022-12-29T06:23:27;20.22;55.31
76956;DHT22;65894;53.206;-6.108;2022-12-29T06:25:53;20.22;55.30
76956;DHT22;65894;53.206;-6.108;2022-12-29T06:28:19;20.22;55.29
76956;DHT22;65894;53.206;-6.108;2022-12-29T06:30:46;20.23;55.23
76956;DHT22;65894;53.206;-6.108;2022-12-29T06:33:12;20.25;55.23
76956;DHT22;65894;53.206;-6.108;2022-12-29T06:35:37;20.22;55.28
76956;DHT22;65894;53.206;-6.108;2022-12-29T06:38:03;20.23;55.11
76956;DHT22;65894;53.206;-6.108;2022-12-29T06:40:29;20.23;55.20
76956;DHT22;65894;53.206;-6.108;2022-12-29T06:43:21;20.26;55.12
76956;DHT22;65894;53.206;-6.108;2022-12-29T06:46:07;20.26;55.12
76956;DHT22;65894;53.206;-6.108;2022-12-29T06:48:32;20.20;55.17
76956;DHT22;65894;53.206;-6.108;2022-12-29T06:50:58;20.19;55.25
76956;DHT22;65894;53.206;-6.108;2022-12-29T06:53:23;20.23;55.14
76956;DHT22;65894;53.206;-6.108;2022-12-29T06:55:48;20.23;55.14
76956;DHT22;65894;53.206;-6.108;2022-12-29T06:58:14;20.22;55.10
76956;DHT22;65894;53.206;-6.108;2022-12-29T07:00:40;20.25;55.11
76956;DHT22;65894;53.206;-6.108;2022-12-29T07:03:05;20.25;55.09
76956;DHT22;65894;53.206;-6.108;2022-12-29T07:05:31;20.23;55.07
76956;DHT22;65894;53.206;-6.108;2022-12-29T07:07:58;20.22;55.01
76956;DHT22;65894;53.206;-6.108;2022-12-29T07:10:23;20.25;55.07
76956;DHT22;65894;53.206;-6.108;2022-12-29T07:12:49;20.25;54.97
76956;DHT22;65894;53.206;-6.108;2022-12-29T07:15:14;20.25;54.91
76956;DHT22;65894;53.206;-6.108;2022-12-29T07:17:40;20.26;54.95
76956;DHT22;65894;53.206;-6.108;2022-12-29T07:20:06;20.23;55.00
76956;DHT22;65894;53.206;-6.108;2022-12-29T07:22:32;20.29;54.89
76956;DHT22;65894;53.206;-6.108;2022-12-29T07:24:58;20.26;54.85
76956;DHT22;65894;53.206;-6.108;2022-12-29T07:27:23;20.25;54.87
76956;DHT22;65894;53.206;-6.108;2022-12-29T07:29:49;20.28;54.84
76956;DHT22;65894;53.206;-6.108;2022-12-29T07:32:14;20.28;54.87
76956;DHT22;65894;53.206;-6.108;2022-12-29T07:34:40;20.28;54.83
76956;DHT22;65894;53.206;-6.108;2022-12-29T07:37:06;20.25;54.85
76956;DHT22;65894;53.206;-6.108;2022-12-29T07:39:31;20.26;54.80
76956;DHT22;65894;53.206;-6.108;2022-12-29T07:41:57;20.29;54.81
76956;DHT22;65894;53.206;-6.108;2022-12-29T07:44:27;20.30;54.83
76956;DHT22;65894;53.206;-6.108;2022-12-29T07:47:15;20.29;54.69
76956;DHT22;65894;53.206;-6.108;2022-12-29T07:49:40;20.32;54.64
76956;DHT22;65894;53.206;-6.108;2022-12-29T07:52:06;20.29;54.74
76956;DHT22;65894;53.206;-6.108;2022-12-29T07:54:31;20.29;54.69
76956;DHT22;65894;53.206;-6.108;2022-12-29T07:56:57;20.29;54.71
76956;DHT22;65894;53.206;-6.108;2022-12-29T07:59:25;20.29;54.63
76956;DHT22;65894;53.206;-6.108;2022-12-29T08:01:51;20.32;54.70
76956;DHT22;65894;53.206;-6.108;2022-12-29T08:04:16;20.30;54.64
76956;DHT22;65894;53.206;-6.108;2022-12-29T08:06:42;20.29;54.60
76956;DHT22;65894;53.206;-6.108;2022-12-29T08:09:08;20.30;54.62
76956;DHT22;65894;53.206;-6.108;2022-12-29T08:11:33;20.32;54.58
76956;DHT22;65894;53.206;-6.108;2022-12-29T08:13:59;20.33;54.51
76956;DHT22;65894;53.206;-6.108;2022-12-29T08:16:24;20.30;54.44
76956;DHT22;65894;53.206;-6.108;2022-12-29T08:18:50;20.32;54.52
76956;DHT22;65894;53.206;-6.108;2022-12-29T08:21:15;20.30;54.39
76956;DHT22;65894;53.206;-6.108;2022-12-29T08:23:41;20.30;54.33
76956;DHT22;65894;53.206;-6.108;2022-12-29T08:26:06;20.30;54.33
76956;DHT22;65894;53.206;-6.108;2022-12-29T08:28:32;20.30;54.33
76956;DHT22;65894;53.206;-6.108;2022-12-29T08:31:00;20.30;54.26
76956;DHT22;65894;53.206;-6.108;2022-12-29T08:33:26;20.30;54.28
76956;DHT22;65894;53.206;-6.108;2022-12-29T08:35:52;20.30;54.27
76956;DHT22;65894;53.206;-6.108;2022-12-29T08:38:17;20.33;54.33
76956;DHT22;65894;53.206;-6.108;2022-12-29T08:40:43;20.34;54.22
76956;DHT22;65894;53.206;-6.108;2022-12-29T08:43:09;20.33;54.28
76956;DHT22;65894;53.206;-6.108;2022-12-29T08:45:35;20.32;54.30
76956;DHT22;65894;53.206;-6.108;2022-12-29T08:48:00;20.34;54.18
76956;DHT22;65894;53.206;-6.108;2022-12-29T08:50:26;20.36;54.23
76956;DHT22;65894;53.206;-6.108;2022-12-29T08:52:51;20.39;54.23
76956;DHT22;65894;53.206;-6.108;2022-12-29T08:55:17;20.36;54.22
76956;DHT22;65894;53.206;-6.108;2022-12-29T08:57:42;20.39;54.22
76956;DHT22;65894;53.206;-6.108;2022-12-29T09:00:26;20.34;54.26
76956;DHT22;65894;53.206;-6.108;2022-12-29T09:02:52;20.37;54.10
76956;DHT22;65894;53.206;-6.108;2022-12-29T09:05:17;20.34;54.23
76956;DHT22;65894;53.206;-6.108;2022-12-29T09:07:43;20.36;54.20
76956;DHT22;65894;53.206;-6.108;2022-12-29T09:10:09;20.36;54.20
76956;DHT22;65894;53.206;-6.108;2022-12-29T09:12:34;20.37;54.19
76956;DHT22;65894;53.206;-6.108;2022-12-29T09:15:00;20.39;54.17
76956;DHT22;65894;53.206;-6.108;2022-12-29T09:17:25;20.36;54.15
76956;DHT22;65894;53.206;-6.108;2022-12-29T09:20:08;20.36;54.13
76956;DHT22;65894;53.206;-6.108;2022-12-29T09:22:34;20.37;54.20
76956;DHT22;65894;53.206;-6.108;2022-12-29T09:25:00;20.37;54.12
76956;DHT22;65894;53.206;-6.108;2022-12-29T09:27:26;20.39;54.07
76956;DHT22;65894;53.206;-6.108;2022-12-29T09:29:51;20.39;54.07
76956;DHT22;65894;53.206;-6.108;2022-12-29T09:32:17;20.37;54.06
76956;DHT22;65894;53.206;-6.108;2022-12-29T09:34:42;20.39;54.05
76956;DHT22;65894;53.206;-6.108;2022-12-29T09:37:08;20.39;54.10
76956;DHT22;65894;53.206;-6.108;2022-12-29T09:39:33;20.37;54.07
76956;DHT22;65894;53.206;-6.108;2022-12-29T09:47:22;20.41;54.12
76956;DHT22;65894;53.206;-6.108;2022-12-29T09:49:53;20.39;54.09
76956;DHT22;65894;53.206;-6.108;2022-12-29T09:52:27;20.41;53.92
76956;DHT22;65894;53.206;-6.108;2022-12-29T09:55:47;20.44;54.01
76956;DHT22;65894;53.206;-6.108;2022-12-29T10:03:40;20.44;53.99
76956;DHT22;65894;53.206;-6.108;2022-12-29T10:06:17;20.41;54.03
76956;DHT22;65894;53.206;-6.108;2022-12-29T10:11:25;20.43;53.95
76956;DHT22;65894;53.206;-6.108;2022-12-29T10:24:22;20.46;53.99
76956;DHT22;65894;53.206;-6.108;2022-12-29T10:26:48;20.46;53.93
76956;DHT22;65894;53.206;-6.108;2022-12-29T10:29:20;20.47;53.96
76956;DHT22;65894;53.206;-6.108;2022-12-29T10:31:58;20.46;53.93
76956;DHT22;65894;53.206;-6.108;2022-12-29T10:34:28;20.41;53.55
76956;DHT22;65894;53.206;-6.108;2022-12-29T10:37:00;20.40;53.77
76956;DHT22;65894;53.206;-6.108;2022-12-29T10:39:37;20.44;53.70
76956;DHT22;65894;53.206;-6.108;2022-12-29T10:42:20;20.46;53.67
76956;DHT22;65894;53.206;-6.108;2022-12-29T10:44:47;20.47;53.74
76956;DHT22;65894;53.206;-6.108;2022-12-29T10:47:19;20.47;53.76
76956;DHT22;65894;53.206;-6.108;2022-12-29T10:49:47;20.49;53.84
76956;DHT22;65894;53.206;-6.108;2022-12-29T10:52:15;20.50;53.90
76956;DHT22;65894;53.206;-6.108;2022-12-29T10:54:59;20.50;53.95
76956;DHT22;65894;53.206;-6.108;2022-12-29T10:57:33;20.51;54.32
76956;DHT22;65894;53.206;-6.108;2022-12-29T11:00:00;20.56;56.41
76956;DHT22;65894;53.206;-6.108;2022-12-29T11:05:43;20.60;57.45
76956;DHT22;65894;53.206;-6.108;2022-12-29T11:08:15;20.60;57.05
76956;DHT22;65894;53.206;-6.108;2022-12-29T11:10:43;20.61;56.90
76956;DHT22;65894;53.206;-6.108;2022-12-29T11:13:24;20.63;56.71
76956;DHT22;65894;53.206;-6.108;2022-12-29T11:15:51;20.61;56.35
76956;DHT22;65894;53.206;-6.108;2022-12-29T11:18:25;20.57;56.21
76956;DHT22;65894;53.206;-6.108;2022-12-29T11:20:57;20.59;55.96
76956;DHT22;65894;53.206;-6.108;2022-12-29T11:23:31;20.59;55.90
76956;DHT22;65894;53.206;-6.108;2022-12-29T11:26:27;20.57;55.72
76956;DHT22;65894;53.206;-6.108;2022-12-29T11:31:41;20.59;55.57
76956;DHT22;65894;53.206;-6.108;2022-12-29T11:34:07;20.59;55.51
76956;DHT22;65894;53.206;-6.108;2022-12-29T11:36:34;20.56;55.49
76956;DHT22;65894;53.206;-6.108;2022-12-29T11:39:01;20.56;55.50
76956;DHT22;65894;53.206;-6.108;2022-12-29T11:41:31;20.56;55.46
76956;DHT22;65894;53.206;-6.108;2022-12-29T11:43:59;20.54;55.40
76956;DHT22;65894;53.206;-6.108;2022-12-29T11:46:28;20.60;55.35
76956;DHT22;65894;53.206;-6.108;2022-12-29T11:48:56;20.60;55.34
76956;DHT22;65894;53.206;-6.108;2022-12-29T11:51:27;20.60;55.32
76956;DHT22;65894;53.206;-6.108;2022-12-29T11:53:58;20.60;55.30
76956;DHT22;65894;53.206;-6.108;2022-12-29T11:56:41;20.61;55.23
76956;DHT22;65894;53.206;-6.108;2022-12-29T11:59:37;20.61;55.25
76956;DHT22;65894;53.206;-6.108;2022-12-29T12:04:41;20.59;55.26
76956;DHT22;65894;53.206;-6.108;2022-12-29T12:07:15;20.60;55.22
76956;DHT22;65894;53.206;-6.108;2022-12-29T12:12:20;20.59;55.07
76956;DHT22;65894;53.206;-6.108;2022-12-29T12:14:55;20.59;55.17
76956;DHT22;65894;53.206;-6.108;2022-12-29T12:20:51;20.57;55.04
76956;DHT22;65894;53.206;-6.108;2022-12-29T12:23:32;20.56;54.97
76956;DHT22;65894;53.206;-6.108;2022-12-29T12:26:11;20.60;54.98
76956;DHT22;65894;53.206;-6.108;2022-12-29T12:34:30;20.59;54.96
76956;DHT22;65894;53.206;-6.108;2022-12-29T12:53:26;20.57;55.06
76956;DHT22;65894;53.206;-6.108;2022-12-29T12:58:52;20.56;54.94
76956;DHT22;65894;53.206;-6.108;2022-12-29T13:01:38;20.56;54.96
76956;DHT22;65894;53.206;-6.108;2022-12-29T13:04:22;20.57;54.96
76956;DHT22;65894;53.206;-6.108;2022-12-29T13:06:59;20.59;54.88
76956;DHT22;65894;53.206;-6.108;2022-12-29T13:20:15;20.63;55.09
76956;DHT22;65894;53.206;-6.108;2022-12-29T13:34:05;20.57;54.43
76956;DHT22;65894;53.206;-6.108;2022-12-29T13:36:40;20.59;54.96
76956;DHT22;65894;53.206;-6.108;2022-12-29T13:39:28;20.61;54.90
76956;DHT22;65894;53.206;-6.108;2022-12-29T13:42:02;20.57;54.51
76956;DHT22;65894;53.206;-6.108;2022-12-29T13:44:34;20.61;54.87
76956;DHT22;65894;53.206;-6.108;2022-12-29T13:47:11;20.59;54.82
76956;DHT22;65894;53.206;-6.108;2022-12-29T13:49:41;20.60;54.91
76956;DHT22;65894;53.206;-6.108;2022-12-29T13:55:18;20.60;54.79
76956;DHT22;65894;53.206;-6.108;2022-12-29T13:58:03;20.60;54.71
76956;DHT22;65894;53.206;-6.108;2022-12-29T14:00:50;20.60;54.79
76956;DHT22;65894;53.206;-6.108;2022-12-29T14:03:20;20.64;54.77
76956;DHT22;65894;53.206;-6.108;2022-12-29T14:06:32;20.63;54.68
76956;DHT22;65894;53.206;-6.108;2022-12-29T14:09:02;20.63;54.69
76956;DHT22;65894;53.206;-6.108;2022-12-29T14:11:33;20.63;54.71
76956;DHT22;65894;53.206;-6.108;2022-12-29T14:14:28;20.61;54.68
76956;DHT22;65894;53.206;-6.108;2022-12-29T14:16:54;20.61;54.69
76956;DHT22;65894;53.206;-6.108;2022-12-29T14:19:38;20.60;54.30
76956;DHT22;65894;53.206;-6.108;2022-12-29T14:22:06;20.61;54.48
76956;DHT22;65894;53.206;-6.108;2022-12-29T14:26:58;20.59;54.42
76956;DHT22;65894;53.206;-6.108;2022-12-29T14:31:49;20.60;54.41
76956;DHT22;65894;53.206;-6.108;2022-12-29T14:34:25;20.60;54.41
76956;DHT22;65894;53.206;-6.108;2022-12-29T14:36:58;20.63;54.40
76956;DHT22;65894;53.206;-6.108;2022-12-29T14:44:34;20.64;54.37
76956;DHT22;65894;53.206;-6.108;2022-12-29T14:49:46;20.61;54.32
76956;DHT22;65894;53.206;-6.108;2022-12-29T14:52:20;20.64;54.31
76956;DHT22;65894;53.206;-6.108;2022-12-29T14:57:41;20.64;54.26
76956;DHT22;65894;53.206;-6.108;2022-12-29T15:00:12;20.60;54.33
76956;DHT22;65894;53.206;-6.108;2022-12-29T15:02:40;20.63;54.24
76956;DHT22;65894;53.206;-6.108;2022-12-29T15:05:32;20.63;54.21
76956;DHT22;65894;53.206;-6.108;2022-12-29T15:07:59;20.67;54.18
76956;DHT22;65894;53.206;-6.108;2022-12-29T15:10:27;20.67;54.12
76956;DHT22;65894;53.206;-6.108;2022-12-29T15:13:14;20.67;54.07
76956;DHT22;65894;53.206;-6.108;2022-12-29T15:15:40;20.67;54.18
76956;DHT22;65894;53.206;-6.108;2022-12-29T15:21:00;20.64;54.16
76956;DHT22;65894;53.206;-6.108;2022-12-29T15:23:26;20.66;54.18
76956;DHT22;65894;53.206;-6.108;2022-12-29T15:25:56;20.68;54.13
76956;DHT22;65894;53.206;-6.108;2022-12-29T15:28:23;20.68;54.12
76956;DHT22;65894;53.206;-6.108;2022-12-29T15:30:56;20.67;54.12
76956;DHT22;65894;53.206;-6.108;2022-12-29T15:33:24;20.64;54.14
76956;DHT22;65894;53.206;-6.108;2022-12-29T15:35:53;20.70;54.10
76956;DHT22;65894;53.206;-6.108;2022-12-29T15:38:28;20.70;54.09
76956;DHT22;65894;53.206;-6.108;2022-12-29T15:41:06;20.68;54.11
76956;DHT22;65894;53.206;-6.108;2022-12-29T15:46:32;20.61;54.04
76956;DHT22;65894;53.206;-6.108;2022-12-29T15:48:58;20.63;53.98
76956;DHT22;65894;53.206;-6.108;2022-12-29T15:51:29;20.66;53.97
76956;DHT22;65894;53.206;-6.108;2022-12-29T15:53:56;20.67;53.97
76956;DHT22;65894;53.206;-6.108;2022-12-29T15:56:22;20.67;54.06
76956;DHT22;65894;53.206;-6.108;2022-12-29T15:58:50;20.68;53.99
76956;DHT22;65894;53.206;-6.108;2022-12-29T16:03:51;20.67;54.04
76956;DHT22;65894;53.206;-6.108;2022-12-29T16:09:15;20.67;54.08
76956;DHT22;65894;53.206;-6.108;2022-12-29T16:11:49;20.66;54.12
76956;DHT22;65894;53.206;-6.108;2022-12-29T16:14:21;20.67;54.03
76956;DHT22;65894;53.206;-6.108;2022-12-29T16:16:50;20.57;53.99
76956;DHT22;65894;53.206;-6.108;2022-12-29T16:19:24;20.60;54.06
76956;DHT22;65894;53.206;-6.108;2022-12-29T16:21:51;20.63;53.90
76956;DHT22;65894;53.206;-6.108;2022-12-29T16:24:23;20.67;53.90
76956;DHT22;65894;53.206;-6.108;2022-12-29T16:26:53;20.66;53.95
76956;DHT22;65894;53.206;-6.108;2022-12-29T16:29:21;20.68;53.92
76956;DHT22;65894;53.206;-6.108;2022-12-29T16:31:55;20.70;53.94
76956;DHT22;65894;53.206;-6.108;2022-12-29T16:34:32;20.73;53.93
76956;DHT22;65894;53.206;-6.108;2022-12-29T16:37:01;20.71;53.99
76956;DHT22;65894;53.206;-6.108;2022-12-29T16:39:33;20.70;53.96
76956;DHT22;65894;53.206;-6.108;2022-12-29T16:42:00;20.70;54.00
76956;DHT22;65894;53.206;-6.108;2022-12-29T16:44:28;20.68;54.04
76956;DHT22;65894;53.206;-6.108;2022-12-29T16:49:23;20.70;54.04
76956;DHT22;65894;53.206;-6.108;2022-12-29T16:51:48;20.10;52.98
76956;DHT22;65894;53.206;-6.108;2022-12-29T16:54:22;20.28;54.66
76956;DHT22;65894;53.206;-6.108;2022-12-29T16:56:48;20.50;53.91
76956;DHT22;65894;53.206;-6.108;2022-12-29T16:59:35;20.61;53.49
76956;DHT22;65894;53.206;-6.108;2022-12-29T17:02:14;20.64;53.49
76956;DHT22;65894;53.206;-6.108;2022-12-29T17:04:40;20.70;53.52
76956;DHT22;65894;53.206;-6.108;2022-12-29T17:07:17;20.73;53.47
76956;DHT22;65894;53.206;-6.108;2022-12-29T17:09:43;20.73;53.58
76956;DHT22;65894;53.206;-6.108;2022-12-29T17:12:13;20.74;53.58
76956;DHT22;65894;53.206;-6.108;2022-12-29T17:14:56;20.74;53.64
76956;DHT22;65894;53.206;-6.108;2022-12-29T17:17:32;20.74;53.69
76956;DHT22;65894;53.206;-6.108;2022-12-29T17:20:04;20.77;53.62
76956;DHT22;65894;53.206;-6.108;2022-12-29T17:22:30;20.74;53.47
76956;DHT22;65894;53.206;-6.108;2022-12-29T17:24:58;20.71;53.43
76956;DHT22;65894;53.206;-6.108;2022-12-29T17:27:31;20.71;53.55
76956;DHT22;65894;53.206;-6.108;2022-12-29T17:30:02;20.67;53.48
76956;DHT22;65894;53.206;-6.108;2022-12-29T17:32:28;20.67;53.52
76956;DHT22;65894;53.206;-6.108;2022-12-29T17:34:54;20.67;53.50
76956;DHT22;65894;53.206;-6.108;2022-12-29T17:39:49;20.70;53.43
76956;DHT22;65894;53.206;-6.108;2022-12-29T17:42:18;20.74;53.28
76956;DHT22;65894;53.206;-6.108;2022-12-29T17:44:44;20.77;53.33
76956;DHT22;65894;53.206;-6.108;2022-12-29T17:47:10;20.77;53.40
76956;DHT22;65894;53.206;-6.108;2022-12-29T17:49:36;20.76;53.41
76956;DHT22;65894;53.206;-6.108;2022-12-29T17:52:03;20.80;53.38
76956;DHT22;65894;53.206;-6.108;2022-12-29T17:54:29;20.78;53.44
76956;DHT22;65894;53.206;-6.108;2022-12-29T17:56:54;20.78;53.44
76956;DHT22;65894;53.206;-6.108;2022-12-29T17:59:20;20.78;53.49
76956;DHT22;65894;53.206;-6.108;2022-12-29T18:01:46;20.78;53.61
76956;DHT22;65894;53.206;-6.108;2022-12-29T18:04:17;20.80;53.61
76956;DHT22;65894;53.206;-6.108;2022-12-29T18:06:44;20.81;53.73
76956;DHT22;65894;53.206;-6.108;2022-12-29T18:09:11;20.80;53.80
76956;DHT22;65894;53.206;-6.108;2022-12-29T18:11:41;20.78;53.90
76956;DHT22;65894;53.206;-6.108;2022-12-29T18:14:11;20.80;53.89
76956;DHT22;65894;53.206;-6.108;2022-12-29T18:16:37;20.81;53.96
76956;DHT22;65894;53.206;-6.108;2022-12-29T18:19:02;20.83;53.97